Time;durP1;ratioP1;P1;durP2;ratioP2;P2;SDS_P1;SDS_P2;PMS_P1;PMS_P2;Temp;Humidity;BMP_temperature;BMP_pressure;BME280_temperature;BME280_humidity;BME280_pressure;Samples;Min_cycle;Max_cycle;Signal;HPM_P1;HPM_P2
2023/09/28 00:03:16;;;;;;;16.30;14.05;;;20.60;99.90;;;;;;4843980;29;20241;-84
2023/09/28 00:05:42;;;;;;;19.02;14.75;;;20.60;99.90;;;;;;4859173;29;20052;-85
2023/09/28 00:08:10;;;;;;;18.75;14.70;;;20.50;99.90;;;;;;4844039;29;20033;-83
2023/09/28 00:10:37;;;;;;;21.98;14.88;;;20.40;99.90;;;;;;4859465;29;20038;-85
2023/09/28 00:13:03;;;;;;;19.95;14.90;;;20.30;99.90;;;;;;4859340;29;20037;-84
2023/09/28 00:15:29;;;;;;;17.08;14.35;;;20.30;99.90;;;;;;4844136;29;20033;-83
2023/09/28 00:17:56;;;;;;;18.33;14.75;;;20.20;99.90;;;;;;4855714;29;20098;-84
2023/09/28 00:20:23;;;;;;;19.60;14.10;;;20.20;99.90;;;;;;4810322;29;20072;-85
2023/09/28 00:22:54;;;;;;;19.02;14.20;;;20.20;99.90;;;;;;4810565;29;20512;-84
2023/09/28 00:25:23;;;;;;;15.57;13.98;;;20.10;99.90;;;;;;4825567;29;20046;-83
2023/09/28 00:27:51;;;;;;;19.70;14.63;;;20.20;99.90;;;;;;4842364;29;20407;-84
2023/09/28 00:30:20;;;;;;;17.63;14.57;;;20.10;99.90;;;;;;4830550;29;20038;-85
2023/09/28 00:32:52;;;;;;;17.33;15.23;;;20.10;99.90;;;;;;4810291;29;20057;-84
2023/09/28 00:35:20;;;;;;;16.73;14.02;;;20.10;99.90;;;;;;4810677;29;20116;-84
2023/09/28 00:37:46;;;;;;;19.58;14.07;;;20.10;99.90;;;;;;4864099;29;20041;-84
2023/09/28 00:40:18;;;;;;;21.63;15.05;;;20.10;99.90;;;;;;4897449;29;20033;-84
2023/09/28 00:42:52;;;;;;;21.05;14.40;;;20.10;99.90;;;;;;4908768;29;20031;-84
2023/09/28 00:45:20;;;;;;;18.83;15.02;;;20.20;99.90;;;;;;4900349;29;20520;-84
2023/09/28 00:47:54;;;;;;;19.63;14.73;;;20.10;99.90;;;;;;4900196;29;20028;-82
2023/09/28 00:50:22;;;;;;;17.98;15.07;;;20.20;99.90;;;;;;4915320;29;20052;-84
2023/09/28 00:52:55;;;;;;;20.58;14.20;;;20.10;99.90;;;;;;4900248;29;20071;-84
2023/09/28 00:55:22;;;;;;;25.10;15.13;;;20.10;99.90;;;;;;4900305;29;20059;-84
2023/09/28 00:57:50;;;;;;;22.33;14.18;;;20.00;99.90;;;;;;4899881;29;20540;-84
2023/09/28 01:02:53;;;;;;;18.38;14.55;;;20.00;99.90;;;;;;4916893;29;20032;-85
2023/09/28 01:05:33;;;;;;;16.67;14.02;;;20.00;99.90;;;;;;4907860;29;20131;-84
2023/09/28 01:08:21;;;;;;;21.35;14.65;;;20.00;99.90;;;;;;4903283;29;20024;-84
2023/09/28 01:10:51;;;;;;;15.65;13.50;;;19.90;99.90;;;;;;4904049;29;20039;-84
2023/09/28 01:13:23;;;;;;;17.20;14.90;;;19.90;99.90;;;;;;4903670;29;20028;-85
2023/09/28 01:15:50;;;;;;;20.38;14.50;;;19.80;99.90;;;;;;4911286;29;20051;-84
2023/09/28 01:18:18;;;;;;;20.35;14.95;;;19.80;99.90;;;;;;4900400;29;20091;-85
2023/09/28 01:20:47;;;;;;;26.08;15.32;;;19.80;99.90;;;;;;4900370;29;20037;-84
2023/09/28 01:23:14;;;;;;;23.52;14.73;;;19.70;99.90;;;;;;4900505;29;20031;-84
2023/09/28 01:25:41;;;;;;;17.42;15.15;;;19.80;99.90;;;;;;4884880;29;20043;-84
2023/09/28 01:28:08;;;;;;;20.38;14.93;;;19.70;99.90;;;;;;4903507;29;20027;-84
2023/09/28 01:30:34;;;;;;;21.17;14.57;;;19.70;99.90;;;;;;4903578;29;20028;-84
2023/09/28 01:33:02;;;;;;;24.65;14.57;;;19.70;99.90;;;;;;4903534;29;20075;-84
2023/09/28 01:35:29;;;;;;;16.90;14.32;;;19.60;99.90;;;;;;4918913;29;20091;-84
2023/09/28 01:38:03;;;;;;;21.10;15.15;;;19.60;99.90;;;;;;4903120;29;20038;-84
2023/09/28 01:40:30;;;;;;;24.83;16.13;;;19.60;99.90;;;;;;4903125;29;20036;-85
2023/09/28 01:42:56;;;;;;;23.85;15.60;;;19.50;99.90;;;;;;4903113;29;20490;-84
2023/09/28 01:45:24;;;;;;;24.10;15.88;;;19.50;99.90;;;;;;4906760;29;20483;-84
2023/09/28 01:47:50;;;;;;;24.25;15.63;;;19.50;99.90;;;;;;4900004;29;20039;-85
2023/09/28 01:50:17;;;;;;;28.00;16.77;;;19.50;99.90;;;;;;4900799;29;20506;-85
2023/09/28 01:52:43;;;;;;;26.13;16.73;;;19.40;99.90;;;;;;4918656;29;20040;-84
2023/09/28 01:55:13;;;;;;;25.10;15.48;;;19.40;99.90;;;;;;4903074;29;20028;-85
2023/09/28 01:57:42;;;;;;;26.95;16.02;;;19.40;99.90;;;;;;4918630;29;20032;-84
2023/09/28 02:00:28;;;;;;;27.27;14.82;;;19.40;99.90;;;;;;4918503;29;20032;-85
2023/09/28 02:02:58;;;;;;;18.70;15.00;;;19.40;99.90;;;;;;4903282;29;20040;-85
2023/09/28 02:05:26;;;;;;;27.98;15.70;;;19.40;99.90;;;;;;4903005;29;20041;-84
2023/09/28 02:07:58;;;;;;;23.50;15.65;;;19.40;99.90;;;;;;4918655;29;20020;-84
2023/09/28 02:10:24;;;;;;;26.05;15.55;;;19.40;99.90;;;;;;4902856;29;20035;-84
2023/09/28 02:12:51;;;;;;;26.23;16.00;;;19.40;99.90;;;;;;4902821;29;20035;-85
2023/09/28 02:15:17;;;;;;;24.80;15.95;;;19.40;99.90;;;;;;4904128;29;20467;-84
2023/09/28 02:17:45;;;;;;;21.55;15.57;;;19.30;99.90;;;;;;4899768;29;20060;-85
2023/09/28 02:20:22;;;;;;;26.45;15.98;;;19.30;99.90;;;;;;4899524;29;20049;-84
2023/09/28 02:22:52;;;;;;;26.77;16.00;;;19.30;99.90;;;;;;4901389;29;20067;-84
2023/09/28 02:25:21;;;;;;;24.75;15.52;;;19.30;99.90;;;;;;4905079;29;20032;-85
2023/09/28 02:27:52;;;;;;;23.05;14.88;;;19.30;99.90;;;;;;4899448;29;20037;-85
2023/09/28 02:30:22;;;;;;;21.80;15.50;;;19.30;99.90;;;;;;4899230;29;20037;-84
2023/09/28 02:32:55;;;;;;;29.73;15.50;;;19.30;99.90;;;;;;4889641;29;20055;-84
2023/09/28 02:35:22;;;;;;;20.42;14.68;;;19.20;99.90;;;;;;4908315;29;20040;-84
2023/09/28 02:37:51;;;;;;;21.13;15.05;;;19.30;99.90;;;;;;4917900;29;20045;-84
2023/09/28 02:40:19;;;;;;;22.70;14.95;;;19.30;99.90;;;;;;4902521;29;20427;-85
2023/09/28 02:42:50;;;;;;;27.90;15.85;;;19.30;99.90;;;;;;4898679;29;20115;-84
2023/09/28 02:45:17;;;;;;;25.55;14.52;;;19.30;99.90;;;;;;4904229;29;20506;-84
2023/09/28 02:47:48;;;;;;;18.45;14.25;;;19.30;99.90;;;;;;4901751;29;20466;-84
2023/09/28 02:50:16;;;;;;;22.20;14.50;;;19.20;99.90;;;;;;4917670;29;20501;-84
2023/09/28 02:52:46;;;;;;;21.38;14.15;;;19.20;99.90;;;;;;4902063;29;20050;-84
2023/09/28 02:55:13;;;;;;;18.65;14.63;;;19.20;99.90;;;;;;4902159;29;20040;-84
2023/09/28 02:57:41;;;;;;;26.15;14.65;;;19.20;99.90;;;;;;4902015;29;20107;-84
2023/09/28 03:02:47;;;;;;;19.45;14.60;;;19.20;99.90;;;;;;4917286;29;20032;-85
2023/09/28 03:05:16;;;;;;;23.95;14.30;;;19.20;99.90;;;;;;4902008;29;20390;-85
2023/09/28 03:07:43;;;;;;;29.13;15.50;;;19.20;99.90;;;;;;4901917;29;20184;-84
2023/09/28 03:10:10;;;;;;;26.65;14.68;;;19.20;99.90;;;;;;4901797;29;20068;-84
2023/09/28 03:12:36;;;;;;;25.42;15.50;;;19.20;99.90;;;;;;4900919;29;20454;-83
2023/09/28 03:15:10;;;;;;;25.10;14.68;;;19.20;99.90;;;;;;4902310;29;20031;-85
2023/09/28 03:17:37;;;;;;;;;;;19.10;99.90;;;;;;4902342;29;20028;-85
2023/09/28 03:20:17;;;;;;;23.02;14.95;;;19.20;99.90;;;;;;4917639;29;20281;-84
2023/09/28 03:22:45;;;;;;;24.17;14.63;;;19.20;99.90;;;;;;4901091;29;20092;-85
2023/09/28 03:25:22;;;;;;;23.60;15.70;;;19.20;99.90;;;;;;4901901;29;20084;-87
2023/09/28 03:27:51;;;;;;;26.83;15.52;;;19.20;99.90;;;;;;4901808;29;20035;-83
2023/09/28 03:30:20;;;;;;;22.10;14.43;;;19.20;99.90;;;;;;4901486;29;20028;-84
2023/09/28 03:32:47;;;;;;;27.15;15.23;;;19.20;99.90;;;;;;4917324;29;20028;-85
2023/09/28 03:35:15;;;;;;;25.17;15.02;;;19.20;99.90;;;;;;4902169;29;20057;-85
2023/09/28 03:37:42;;;;;;;21.98;14.85;;;19.20;99.90;;;;;;4898037;29;20029;-84
2023/09/28 03:40:10;;;;;;;27.48;15.98;;;19.20;99.90;;;;;;4898169;29;20040;-84
2023/09/28 03:42:42;;;;;;;34.55;16.70;;;19.20;99.90;;;;;;4897936;29;20035;-84
2023/09/28 03:45:22;;;;;;;28.73;16.20;;;19.20;99.90;;;;;;4882774;29;20036;-85
2023/09/28 03:47:53;;;;;;;27.77;15.85;;;19.30;99.90;;;;;;4882871;29;20032;-88
2023/09/28 03:50:23;;;;;;;22.52;15.93;;;19.30;99.90;;;;;;4882894;29;20060;-83
2023/09/28 03:52:50;;;;;;;32.88;15.93;;;19.30;99.90;;;;;;4895807;29;20389;-83
2023/09/28 03:55:19;;;;;;;28.45;16.77;;;19.30;99.90;;;;;;4901564;29;20495;-82
2023/09/28 03:57:48;;;;;;;29.95;17.13;;;19.30;99.90;;;;;;4897165;29;20056;-82
2023/09/28 04:00:17;;;;;;;23.90;14.93;;;19.20;99.90;;;;;;4897265;29;20044;-82
2023/09/28 04:02:50;;;;;;;29.63;15.75;;;19.20;99.90;;;;;;4910802;29;20047;-82
2023/09/28 04:05:16;;;;;;;34.90;15.75;;;19.20;99.90;;;;;;4915720;29;20035;-82
2023/09/28 04:07:43;;;;;;;30.73;15.77;;;19.10;99.90;;;;;;4915768;29;20051;-82
2023/09/28 04:10:11;;;;;;;31.75;16.33;;;19.10;99.90;;;;;;4915813;29;20055;-82
2023/09/28 04:12:38;;;;;;;28.83;17.05;;;19.10;99.90;;;;;;4915483;29;20028;-83
2023/09/28 04:15:05;;;;;;;28.38;15.18;;;19.10;99.90;;;;;;4899059;29;20032;-82
2023/09/28 04:17:40;;;;;;;32.03;17.55;;;19.00;99.90;;;;;;4897911;29;20020;-80
2023/09/28 04:20:17;;;;;;;27.27;17.33;;;19.00;99.90;;;;;;4882820;29;20558;-82
2023/09/28 04:22:43;;;;;;;26.55;18.05;;;19.00;99.90;;;;;;4890673;29;20478;-82
2023/09/28 04:25:11;;;;;;;25.52;16.67;;;19.00;99.90;;;;;;4899519;29;20025;-82
2023/09/28 04:27:38;;;;;;;30.35;17.10;;;19.00;99.90;;;;;;4882282;29;20032;-82
2023/09/28 04:30:05;;;;;;;34.75;17.92;;;18.90;99.90;;;;;;4881117;29;20550;-82
2023/09/28 04:32:32;;;;;;;31.27;16.55;;;18.90;99.90;;;;;;4888525;29;20032;-82
2023/09/28 04:34:58;;;;;;;29.80;17.50;;;19.00;99.90;;;;;;4897664;29;20124;-82
2023/09/28 04:37:41;;;;;;;33.38;17.67;;;19.00;99.90;;;;;;4912995;29;20028;-82
2023/09/28 04:40:10;;;;;;;28.30;18.45;;;19.00;99.90;;;;;;4904132;29;20501;-80
2023/09/28 04:42:36;;;;;;;26.50;17.38;;;19.00;99.90;;;;;;4905071;29;20026;-82
2023/09/28 04:45:04;;;;;;;31.42;18.67;;;19.00;99.90;;;;;;4919746;29;20370;-82
2023/09/28 04:47:32;;;;;;;32.72;17.88;;;19.00;99.90;;;;;;4905289;29;20394;-83
2023/09/28 04:50:00;;;;;;;36.13;18.10;;;19.00;99.90;;;;;;4904075;29;20127;-83
2023/09/28 04:52:27;;;;;;;35.08;18.52;;;19.00;99.90;;;;;;4901604;29;20084;-83
2023/09/28 04:54:54;;;;;;;37.80;19.15;;;19.00;99.90;;;;;;4919748;29;20028;-83
2023/09/28 04:57:20;;;;;;;33.60;18.35;;;19.10;99.90;;;;;;4921799;29;20032;-82
2023/09/28 04:59:47;;;;;;;31.58;18.63;;;19.10;99.90;;;;;;4903534;29;20047;-82
2023/09/28 05:02:13;;;;;;;30.42;18.55;;;19.10;99.90;;;;;;4920553;29;20411;-82
2023/09/28 05:04:40;;;;;;;34.63;18.60;;;19.10;99.90;;;;;;4903534;29;20036;-81
2023/09/28 05:07:06;;;;;;;34.90;18.73;;;19.20;99.90;;;;;;4904209;29;20042;-81
2023/09/28 05:09:38;;;;;;;34.22;19.55;;;19.20;99.90;;;;;;4918883;29;20501;-81
2023/09/28 05:12:05;;;;;;;30.80;19.02;;;19.20;99.90;;;;;;4922890;29;20036;-81
2023/09/28 05:14:31;;;;;;;29.50;18.02;;;19.30;99.90;;;;;;4920882;29;20021;-82
2023/09/28 05:16:58;;;;;;;32.38;17.92;;;19.30;99.90;;;;;;4903408;29;20043;-82
2023/09/28 05:19:30;;;;;;;30.95;18.30;;;19.40;99.90;;;;;;4902599;29;20127;-82
2023/09/28 05:21:56;;;;;;;29.05;18.48;;;19.50;99.90;;;;;;4903162;29;20028;-81
2023/09/28 05:24:22;;;;;;;29.85;17.48;;;19.60;99.90;;;;;;4918848;29;20179;-85
2023/09/28 05:26:49;;;;;;;32.15;17.88;;;19.70;99.90;;;;;;4915340;29;20069;-84
2023/09/28 05:29:16;;;;;;;37.42;18.40;;;19.80;99.90;;;;;;4900773;29;20032;-85
2023/09/28 05:31:43;;;;;;;30.88;19.27;;;19.90;99.90;;;;;;4901997;29;20087;-81
2023/09/28 05:34:10;;;;;;;27.55;17.95;;;20.00;99.90;;;;;;4919769;29;20107;-83
2023/09/28 05:36:51;;;;;;;38.60;19.30;;;20.10;99.90;;;;;;4919208;29;20091;-84
2023/09/28 05:39:29;;;;;;;32.97;18.92;;;20.30;99.90;;;;;;4904672;29;20048;-85
2023/09/28 05:41:56;;;;;;;30.60;18.30;;;20.40;99.90;;;;;;4903138;29;20024;-84
2023/09/28 05:44:23;;;;;;;29.92;18.10;;;20.50;99.90;;;;;;4903424;29;20048;-84
2023/09/28 05:46:49;;;;;;;33.40;18.60;;;20.80;99.90;;;;;;4918630;29;20127;-84
2023/09/28 05:49:19;;;;;;;27.92;21.00;;;21.00;99.90;;;;;;4918524;29;20052;-85
2023/09/28 05:51:46;;;;;;;28.13;18.80;;;21.40;99.90;;;;;;4918021;29;20032;-84
2023/09/28 05:54:13;;;;;;;25.92;20.15;;;22.00;99.90;;;;;;4918964;29;20067;-85
2023/09/28 05:56:42;;;;;;;26.13;21.65;;;22.40;99.90;;;;;;4904398;29;20024;-85
2023/09/28 05:59:13;;;;;;;27.20;24.17;;;23.00;99.90;;;;;;4918406;29;20498;-85
2023/09/28 06:02:01;;;;;;;32.20;25.33;;;23.50;99.90;;;;;;4902552;29;20063;-86
2023/09/28 06:04:47;;;;;;;34.42;26.52;;;23.90;99.90;;;;;;4902849;29;20036;-86
2023/09/28 06:07:33;;;;;;;29.17;26.23;;;24.20;99.90;;;;;;4899220;29;20036;-90
2023/09/28 06:10:02;;;;;;;33.67;27.88;;;24.60;99.90;;;;;;4884679;29;20037;-86
2023/09/28 06:12:31;;;;;;;28.60;25.65;;;24.90;99.90;;;;;;4899361;29;20532;-83
2023/09/28 06:14:58;;;;;;;31.23;27.00;;;25.00;99.90;;;;;;4901330;29;20092;-82
2023/09/28 06:17:25;;;;;;;31.05;27.95;;;25.10;99.90;;;;;;4902061;29;20549;-84
2023/09/28 06:19:52;;;;;;;36.63;28.98;;;25.20;99.90;;;;;;4901904;29;20076;-83
2023/09/28 06:22:19;;;;;;;35.08;29.63;;;25.10;99.90;;;;;;4917669;29;20052;-83
2023/09/28 06:24:52;;;;;;;33.13;29.52;;;25.30;99.90;;;;;;4901586;29;20035;-83
2023/09/28 06:27:19;;;;;;;33.65;30.02;;;25.80;99.90;;;;;;4917639;29;20036;-82
2023/09/28 06:29:52;;;;;;;31.88;28.77;;;26.00;99.90;;;;;;4918608;29;20017;-82
2023/09/28 06:32:23;;;;;;;37.75;30.15;;;25.80;99.90;;;;;;4916915;29;20080;-83
2023/09/28 06:34:49;;;;;;;34.47;29.50;;;25.70;99.90;;;;;;4918637;29;20024;-83
2023/09/28 06:37:16;;;;;;;31.98;28.80;;;25.90;99.90;;;;;;4918264;29;20024;-82
2023/09/28 06:39:43;;;;;;;33.90;30.05;;;26.10;99.90;;;;;;4918438;29;20047;-83
2023/09/28 06:42:10;;;;;;;33.42;29.90;;;26.20;99.90;;;;;;4918222;29;20513;-82
2023/09/28 06:44:36;;;;;;;35.17;30.40;;;26.70;99.90;;;;;;4916902;29;20056;-83
2023/09/28 06:47:03;;;;;;;36.35;30.48;;;27.00;99.90;;;;;;4901201;29;20486;-83
2023/09/28 06:49:29;;;;;;;34.47;29.73;;;26.90;99.90;;;;;;4918129;29;20138;-82
2023/09/28 06:51:58;;;;;;;31.63;28.67;;;27.10;99.90;;;;;;4916917;29;20433;-82
2023/09/28 06:54:31;;;;;;;34.33;29.38;;;26.90;99.90;;;;;;4918437;29;20059;-82
2023/09/28 06:57:03;;;;;;;30.73;27.70;;;27.20;99.90;;;;;;4918058;29;20056;-82
2023/09/28 06:59:30;;;;;;;32.63;28.60;;;27.20;99.90;;;;;;4916751;29;20560;-82
2023/09/28 07:01:59;;;;;;;31.38;28.10;;;27.10;99.90;;;;;;4916047;29;20025;-82
2023/09/28 07:04:29;;;;;;;41.40;26.75;;;26.80;99.90;;;;;;4917971;29;20028;-83
2023/09/28 07:07:00;;;;;;;32.38;26.40;;;26.80;99.90;;;;;;4918241;29;20028;-84
2023/09/28 07:09:27;;;;;;;28.88;26.10;;;26.70;99.90;;;;;;4917001;29;20477;-86
2023/09/28 07:11:53;;;;;;;32.13;27.10;;;27.30;99.90;;;;;;4901339;29;20179;-88
2023/09/28 07:14:22;;;;;;;29.65;26.60;;;27.30;99.90;;;;;;4901667;29;20039;-85
2023/09/28 07:16:49;;;;;;;29.92;26.75;;;27.40;99.90;;;;;;4901572;29;20070;-85
2023/09/28 07:19:16;;;;;;;30.92;26.92;;;27.50;99.90;;;;;;4916953;29;20036;-84
2023/09/28 07:21:44;;;;;;;30.25;26.98;;;27.60;99.90;;;;;;4901360;29;20036;-87
2023/09/28 07:24:10;;;;;;;30.33;26.83;;;27.60;99.90;;;;;;4901861;29;20043;-89
2023/09/28 07:26:37;;;;;;;34.10;27.00;;;27.50;99.90;;;;;;4917354;29;20032;-88
2023/09/28 07:29:04;;;;;;;29.67;26.50;;;27.70;99.90;;;;;;4901799;29;20036;-87
2023/09/28 07:31:31;;;;;;;28.75;26.25;;;27.40;99.90;;;;;;4901509;29;20108;-87
2023/09/28 07:33:59;;;;;;;28.50;26.10;;;27.70;99.90;;;;;;4901175;29;20032;-86
2023/09/28 07:36:27;;;;;;;30.33;26.60;;;27.70;99.90;;;;;;4907375;29;20119;-86
2023/09/28 07:38:58;;;;;;;29.23;26.38;;;27.70;99.90;;;;;;4897641;29;20034;-89
2023/09/28 07:41:26;;;;;;;29.50;26.48;;;27.90;99.90;;;;;;4913638;29;20132;-87
2023/09/28 07:43:53;;;;;;;28.92;26.70;;;27.90;99.90;;;;;;4882200;29;20036;-86
2023/09/28 07:46:21;;;;;;;29.23;26.40;;;28.00;99.90;;;;;;4916311;29;20032;-84
2023/09/28 07:48:50;;;;;;;28.33;25.85;;;28.00;99.90;;;;;;4900354;29;20052;-84
2023/09/28 07:51:17;;;;;;;29.00;26.20;;;28.40;99.90;;;;;;4917054;29;20036;-87
2023/09/28 07:53:46;;;;;;;29.27;26.98;;;28.40;99.90;;;;;;4916495;29;20032;-86
2023/09/28 07:56:16;;;;;;;28.17;25.90;;;28.50;99.90;;;;;;4903234;29;20127;-86
2023/09/28 07:58:42;;;;;;;30.67;28.00;;;28.40;99.90;;;;;;4917414;29;20181;-87
2023/09/28 08:01:09;;;;;;;31.10;28.25;;;28.40;99.90;;;;;;4900647;29;20383;-86
2023/09/28 08:03:38;;;;;;;31.92;28.63;;;28.50;99.90;;;;;;4900210;29;20020;-85
2023/09/28 08:06:10;;;;;;;32.30;29.17;;;28.50;99.90;;;;;;4916191;29;20036;-86
2023/09/28 08:08:38;;;;;;;30.02;27.42;;;28.40;99.90;;;;;;4900486;29;20024;-84
2023/09/28 08:11:05;;;;;;;29.40;26.88;;;28.30;99.90;;;;;;4916341;29;20071;-86
2023/09/28 08:13:32;;;;;;;29.58;27.02;;;28.30;99.90;;;;;;4899226;29;20031;-85
2023/09/28 08:15:58;;;;;;;29.58;27.30;;;28.30;99.90;;;;;;4916881;29;20033;-86
2023/09/28 08:18:26;;;;;;;29.88;27.10;;;28.20;99.90;;;;;;4900067;29;20036;-86
2023/09/28 10:00:48;;;;;;;34.05;31.38;;;29.40;99.90;;;;;;5956527;23;21587;-77
2023/09/28 10:03:33;;;;;;;34.30;31.70;;;29.40;99.90;;;;;;4916244;29;20084;-74
2023/09/28 10:06:09;;;;;;;34.63;31.93;;;29.60;99.90;;;;;;4918796;29;20489;-74
2023/09/28 10:08:37;;;;;;;33.95;31.17;;;29.80;99.90;;;;;;4919138;29;20032;-75
2023/09/28 10:11:29;;;;;;;34.17;31.13;;;29.80;99.90;;;;;;4918288;29;20385;-75
2023/09/28 10:14:05;;;;;;;33.78;31.13;;;29.60;99.90;;;;;;4900233;29;20319;-74
2023/09/28 10:16:54;;;;;;;34.10;31.52;;;29.40;99.90;;;;;;4900315;29;20061;-75
2023/09/28 10:24:04;;;;;;;35.40;32.67;;;29.50;99.90;;;;;;4899619;29;20127;-72
2023/09/28 10:26:33;;;;;;;34.97;32.17;;;29.50;99.90;;;;;;4899811;29;20542;-72
2023/09/28 10:29:05;;;;;;;35.25;32.75;;;29.60;99.90;;;;;;4898711;29;20123;-72
2023/09/28 10:31:53;;;;;;;35.80;32.95;;;29.90;99.90;;;;;;4899653;29;20099;-72
2023/09/28 10:35:33;;;;;;;36.20;33.42;;;29.90;99.90;;;;;;4900022;29;20064;-72
2023/09/28 10:38:24;;;;;;;36.17;33.78;;;29.60;99.90;;;;;;4899665;29;20031;-72
2023/09/28 10:40:57;;;;;;;36.50;33.83;;;29.70;99.90;;;;;;4899876;29;20094;-72
2023/09/28 10:43:34;;;;;;;35.88;33.30;;;29.90;99.90;;;;;;4899585;29;20126;-72
2023/09/28 10:46:24;;;;;;;36.38;33.63;;;30.10;99.90;;;;;;4899213;29;20402;-72
2023/09/28 10:49:26;;;;;;;36.08;33.47;;;30.20;99.90;;;;;;4898191;29;20040;-71
2023/09/28 10:52:28;;;;;;;37.55;34.50;;;30.10;99.90;;;;;;4889733;29;20398;-71
2023/09/28 10:55:18;;;;;;;37.22;34.45;;;30.20;99.90;;;;;;4899646;29;20036;-72
2023/09/28 10:58:08;;;;;;;38.95;34.80;;;30.50;99.90;;;;;;4899275;29;20438;-72
2023/09/28 11:01:10;;;;;;;36.00;33.45;;;30.50;99.90;;;;;;4898432;29;20095;-72
2023/09/28 11:04:07;;;;;;;36.65;33.88;;;29.90;99.90;;;;;;4897102;29;20127;-72
2023/09/28 11:07:01;;;;;;;36.83;34.22;;;29.60;99.90;;;;;;4899580;29;20546;-71
2023/09/28 11:09:32;;;;;;;36.70;34.05;;;29.50;99.90;;;;;;4897803;29;20081;-71
2023/09/28 11:12:13;;;;;;;36.60;33.72;;;29.50;99.90;;;;;;4898964;29;20025;-71
2023/09/28 11:14:44;;;;;;;35.83;32.75;;;29.50;99.90;;;;;;4897626;29;20048;-71
2023/09/28 11:52:13;;;;;;;37.10;34.30;;;29.40;99.90;;;;;;5457133;23;19983;-90
2023/09/28 11:54:41;;;;;;;36.17;33.72;;;29.50;99.90;;;;;;4920642;29;20035;-90
2023/09/28 11:57:08;;;;;;;36.95;34.38;;;29.50;99.90;;;;;;4904548;29;20047;-90
2023/09/28 11:59:37;;;;;;;37.65;34.67;;;29.50;99.90;;;;;;4917458;29;20118;-89
2023/09/28 12:02:03;;;;;;;38.35;35.00;;;29.30;99.90;;;;;;4901659;29;20485;-91
2023/09/28 12:04:29;;;;;;;37.47;34.65;;;29.30;99.90;;;;;;4901509;29;20537;-88
2023/09/28 12:06:56;;;;;;;37.65;34.80;;;29.30;99.90;;;;;;4901500;29;20028;-91
2023/09/28 12:09:22;;;;;;;36.97;34.53;;;29.40;99.90;;;;;;4901806;29;20427;-89
2023/09/28 12:11:49;;;;;;;37.10;34.50;;;29.30;99.90;;;;;;4899306;29;20027;-88
2023/09/28 12:14:16;;;;;;;37.35;34.72;;;29.10;99.90;;;;;;4898090;29;20036;-87
2023/09/28 12:16:43;;;;;;;38.15;35.28;;;29.30;99.90;;;;;;4897803;29;20037;-87
2023/09/28 12:19:13;;;;;;;38.25;35.45;;;29.40;99.90;;;;;;4897766;29;20044;-85
2023/09/28 12:21:40;;;;;;;36.92;34.53;;;29.40;99.90;;;;;;4900719;29;20032;-87
2023/09/28 12:24:07;;;;;;;36.85;34.45;;;29.10;99.90;;;;;;4900926;29;20036;-87
2023/09/28 12:26:34;;;;;;;37.58;34.88;;;29.20;99.90;;;;;;4900690;29;20024;-87
2023/09/28 12:29:00;;;;;;;36.55;34.00;;;29.20;99.90;;;;;;4900919;29;20029;-88
2023/09/28 12:31:26;;;;;;;37.05;34.42;;;28.90;99.90;;;;;;4900910;29;20105;-87
2023/09/28 12:33:54;;;;;;;38.30;35.60;;;29.00;99.90;;;;;;4900846;29;20123;-88
2023/09/28 12:36:21;;;;;;;36.75;34.35;;;29.10;99.90;;;;;;4900575;29;20035;-85
2023/09/28 12:38:51;;;;;;;37.83;34.95;;;29.10;99.90;;;;;;4900338;29;20410;-87
2023/09/28 12:41:17;;;;;;;37.33;34.83;;;29.00;99.90;;;;;;4900444;29;20048;-87
2023/09/28 12:43:47;;;;;;;36.00;33.53;;;29.00;99.90;;;;;;4900776;29;20032;-83
2023/09/28 12:46:14;;;;;;;36.55;33.63;;;28.90;99.90;;;;;;4900508;29;20099;-86
2023/09/28 12:48:42;;;;;;;36.60;34.10;;;28.80;99.90;;;;;;4900763;29;20533;-87
2023/09/28 12:51:08;;;;;;;37.38;34.25;;;28.80;99.90;;;;;;4900902;29;20509;-88
2023/09/28 12:53:38;;;;;;;35.53;32.92;;;28.80;99.90;;;;;;4901000;29;20194;-89
2023/09/28 12:56:04;;;;;;;36.53;33.47;;;28.80;99.90;;;;;;4901080;29;20036;-88
2023/09/28 12:58:31;;;;;;;36.22;33.72;;;28.70;99.90;;;;;;4900936;29;20055;-87
2023/09/28 13:00:58;;;;;;;36.33;33.60;;;28.70;99.90;;;;;;4920592;29;20036;-88
2023/09/28 13:03:25;;;;;;;36.08;33.42;;;28.60;99.90;;;;;;4904716;29;20047;-86
2023/09/28 13:05:51;;;;;;;35.53;32.80;;;28.50;99.90;;;;;;4920038;29;20032;-85
2023/09/28 13:08:17;;;;;;;34.65;32.08;;;28.50;99.90;;;;;;4919937;29;20024;-86
2023/09/28 13:10:44;;;;;;;34.63;31.98;;;28.30;99.90;;;;;;4919595;29;20111;-85
2023/09/28 13:13:10;;;;;;;34.67;31.90;;;28.40;99.90;;;;;;4920504;29;20036;-85
2023/09/28 13:15:36;;;;;;;35.35;32.58;;;28.30;99.90;;;;;;4903406;29;20557;-84
2023/09/28 13:18:11;;;;;;;34.15;31.75;;;28.20;99.90;;;;;;4903489;29;20506;-84
2023/09/28 13:20:47;;;;;;;33.97;31.38;;;28.20;99.90;;;;;;4903448;29;20063;-85
2023/09/28 13:23:15;;;;;;;33.75;31.15;;;28.00;99.90;;;;;;4918832;29;20028;-85
2023/09/28 13:25:42;;;;;;;33.20;30.48;;;28.20;99.90;;;;;;4903305;29;20089;-85
2023/09/28 13:28:10;;;;;;;33.28;30.63;;;28.40;99.90;;;;;;4918989;29;20024;-84
2023/09/28 13:30:39;;;;;;;32.47;30.35;;;28.40;99.90;;;;;;4918968;29;20114;-86
2023/09/28 13:33:06;;;;;;;33.40;30.80;;;28.40;99.90;;;;;;4903432;29;20096;-85
2023/09/28 13:35:33;;;;;;;33.42;30.88;;;28.20;99.90;;;;;;4903505;29;20494;-84
2023/09/28 13:38:02;;;;;;;32.72;30.13;;;28.10;99.90;;;;;;4903394;29;20025;-85
2023/09/28 13:40:33;;;;;;;32.10;29.55;;;27.90;99.90;;;;;;4903408;29;20028;-86
2023/09/28 13:43:01;;;;;;;31.75;29.50;;;27.90;99.90;;;;;;4903183;29;20039;-85
2023/09/28 13:45:27;;;;;;;31.88;29.45;;;27.90;99.90;;;;;;4899761;29;20033;-85
2023/09/28 13:47:58;;;;;;;31.38;29.08;;;27.90;99.90;;;;;;4900382;29;20033;-86
2023/09/28 13:50:30;;;;;;;32.28;29.67;;;27.90;99.90;;;;;;4900755;29;20485;-86
2023/09/28 13:52:56;;;;;;;32.50;29.63;;;27.90;99.90;;;;;;4899796;29;20497;-86
2023/09/28 13:55:25;;;;;;;31.10;28.83;;;27.90;99.90;;;;;;4899920;29;20040;-86
2023/09/28 13:57:52;;;;;;;32.53;29.90;;;27.90;99.90;;;;;;4900479;29;20043;-87
2023/09/28 14:00:40;;;;;;;32.67;29.67;;;27.70;99.90;;;;;;4900147;29;20037;-87
2023/09/28 14:03:06;;;;;;;32.47;29.88;;;27.60;99.90;;;;;;4900423;29;20039;-89
2023/09/28 14:05:34;;;;;;;32.38;29.90;;;27.60;99.90;;;;;;4900258;29;20285;-86
2023/09/28 14:08:03;;;;;;;32.35;30.15;;;27.40;99.90;;;;;;4900232;29;20036;-90
2023/09/28 14:10:29;;;;;;;32.70;30.40;;;27.40;99.90;;;;;;4898776;29;20109;-87
2023/09/28 14:12:56;;;;;;;32.80;30.17;;;27.40;99.90;;;;;;4902989;29;20040;-87
2023/09/28 14:15:23;;;;;;;32.45;30.25;;;27.50;99.90;;;;;;4902908;29;20532;-87
2023/09/28 14:17:49;;;;;;;32.70;29.92;;;27.40;99.90;;;;;;4902885;29;20047;-85
2023/09/28 14:20:16;;;;;;;32.25;29.75;;;27.40;99.90;;;;;;4902949;29;20449;-85
2023/09/28 14:22:44;;;;;;;31.40;29.00;;;27.40;99.90;;;;;;4902625;29;20036;-84
2023/09/28 14:25:11;;;;;;;30.92;28.58;;;27.20;99.90;;;;;;4902814;29;20062;-85
2023/09/28 14:27:39;;;;;;;30.55;28.30;;;27.20;99.90;;;;;;4903550;29;20020;-85
2023/09/28 14:30:09;;;;;;;30.23;27.83;;;27.10;99.90;;;;;;4902833;29;20107;-85
2023/09/28 14:32:38;;;;;;;30.13;28.02;;;27.10;99.90;;;;;;4902538;29;20168;-84
2023/09/28 14:35:06;;;;;;;31.02;28.45;;;26.90;99.90;;;;;;4902448;29;20110;-85
2023/09/28 14:37:32;;;;;;;32.30;28.95;;;27.00;99.90;;;;;;4903617;29;20092;-86
2023/09/28 14:40:00;;;;;;;30.58;28.13;;;27.00;99.90;;;;;;4902614;29;20051;-85
2023/09/28 14:42:27;;;;;;;31.90;29.40;;;26.90;99.90;;;;;;4902915;29;20115;-85
2023/09/28 14:44:53;;;;;;;30.63;28.23;;;26.70;99.90;;;;;;4899599;29;20028;-87
2023/09/28 14:47:20;;;;;;;30.63;28.00;;;26.70;99.90;;;;;;4899649;29;20033;-88
2023/09/28 14:49:49;;;;;;;31.00;28.35;;;26.60;99.90;;;;;;4899375;29;20076;-86
2023/09/28 14:52:19;;;;;;;30.02;27.25;;;26.60;99.90;;;;;;4899331;29;20048;-87
2023/09/28 14:54:45;;;;;;;29.73;27.17;;;26.50;99.90;;;;;;4899433;29;20033;-85
2023/09/28 14:57:11;;;;;;;29.20;27.05;;;26.40;99.90;;;;;;4899361;29;20029;-86
2023/09/28 14:59:38;;;;;;;29.85;26.83;;;26.30;99.90;;;;;;4899192;29;20498;-87
2023/09/28 15:02:04;;;;;;;28.63;26.17;;;26.30;99.90;;;;;;4899271;29;20020;-89
2023/09/28 15:04:30;;;;;;;30.08;27.52;;;26.40;99.90;;;;;;4899546;29;20032;-87
2023/09/28 15:06:57;;;;;;;30.35;27.88;;;26.40;99.90;;;;;;4899204;29;20551;-87
2023/09/28 15:09:26;;;;;;;29.70;27.02;;;26.50;99.90;;;;;;4899195;29;20055;-87